createdAt,value
2022-09-07T00:04:06.757Z,6.90
2022-09-07T00:06:55.248Z,6.30
2022-09-07T00:12:23.077Z,9.27
2022-09-07T00:15:12.726Z,8.97
2022-09-07T00:18:01.355Z,7.83
2022-09-07T00:23:50.449Z,7.17
2022-09-07T00:26:40.214Z,5.97
2022-09-07T00:29:29.717Z,7.07
2022-09-07T00:35:02.394Z,8.43
2022-09-07T00:43:20.679Z,7.57
2022-09-07T00:48:59.575Z,8.80
2022-09-07T00:51:50.996Z,6.57
2022-09-07T01:00:15.170Z,5.57
2022-09-07T01:05:57.728Z,5.63
2022-09-07T01:08:47.371Z,7.03
2022-09-07T01:11:36.233Z,5.83
2022-09-07T01:20:32.044Z,5.83
2022-09-07T01:23:45.209Z,7.17
2022-09-07T01:29:52.510Z,4.43
2022-09-07T01:32:49.852Z,5.87
2022-09-07T01:38:31.467Z,6.50
2022-09-07T01:44:23.626Z,5.63
2022-09-07T01:50:00.751Z,6.83
2022-09-07T01:55:42.364Z,3.43
2022-09-07T02:01:23.007Z,5.77
2022-09-07T02:07:00.576Z,9.20
2022-09-07T02:12:36.341Z,3.63
2022-09-07T02:18:15.916Z,3.70
2022-09-07T02:21:05.308Z,5.90
2022-09-07T02:26:36.572Z,4.73
2022-09-07T02:32:11.971Z,3.93
2022-09-07T02:34:59.992Z,5.50
2022-09-07T02:37:50.392Z,2.90
2022-09-07T02:43:20.358Z,4.63
2022-09-07T02:48:59.597Z,2.73
2022-09-07T02:57:22.824Z,3.87
2022-09-07T03:03:00.498Z,5.57
2022-09-07T03:08:31.114Z,6.87
2022-09-07T03:14:22.125Z,6.00
2022-09-07T03:19:52.827Z,6.43
2022-09-07T03:25:34.141Z,7.70
2022-09-07T03:31:11.150Z,6.17
2022-09-07T03:36:46.233Z,6.93
2022-09-07T03:42:18.940Z,9.67
2022-09-07T03:47:56.746Z,9.80
2022-09-07T03:53:31.450Z,7.70
2022-09-07T03:59:11.245Z,6.87
2022-09-07T04:04:50.119Z,7.67
2022-09-07T04:07:40.400Z,9.70
2022-09-07T04:13:15.476Z,5.03
2022-09-07T04:16:11.097Z,7.03
2022-09-07T04:18:59.899Z,6.10
2022-09-07T04:24:35.277Z,5.10
2022-09-07T04:30:16.007Z,7.80
2022-09-07T04:33:05.488Z,4.90
2022-09-07T04:38:36.208Z,5.57
2022-09-07T04:44:16.818Z,9.23
2022-09-07T04:50:00.959Z,6.43
2022-09-07T04:55:36.850Z,5.87
2022-09-07T04:58:33.642Z,7.40
2022-09-07T05:04:06.157Z,8.60
2022-09-07T05:06:55.596Z,6.97
2022-09-07T05:12:31.327Z,7.37
2022-09-07T05:18:07.592Z,5.73
2022-09-07T05:20:55.872Z,8.23
2022-09-07T05:23:44.440Z,8.83
2022-09-07T05:26:37.064Z,9.53
2022-09-07T05:32:13.396Z,4.30
2022-09-07T05:40:38.479Z,5.13
2022-09-07T05:46:13.698Z,6.60
2022-09-07T05:51:51.616Z,5.23
2022-09-07T05:54:40.245Z,6.43
2022-09-07T06:00:17.602Z,7.93
2022-09-07T06:03:06.307Z,7.40
2022-09-07T06:06:02.981Z,6.93
2022-09-07T06:08:53.190Z,4.30
2022-09-07T06:11:41.872Z,5.50
2022-09-07T06:14:30.569Z,6.50
2022-09-07T06:17:19.720Z,3.00
2022-09-07T06:20:10.195Z,5.63
2022-09-07T06:22:59.931Z,6.90
2022-09-07T06:25:51.084Z,3.77
2022-09-07T06:31:27.415Z,6.50
2022-09-07T06:37:03.191Z,2.40
2022-09-07T06:42:40.312Z,5.03
2022-09-07T06:51:01.854Z,4.20
2022-09-07T06:56:30.002Z,7.70
2022-09-07T06:59:18.982Z,5.43
2022-09-07T07:02:08.027Z,3.97
2022-09-07T07:07:44.641Z,4.10
2022-09-07T07:16:09.793Z,3.17
2022-09-07T07:24:46.981Z,6.80
2022-09-07T07:30:15.349Z,5.17
2022-09-07T07:35:48.881Z,3.43
2022-09-07T07:46:55.489Z,3.73
2022-09-07T07:52:50.732Z,3.60
2022-09-07T08:03:44.491Z,4.90
2022-09-07T08:09:19.490Z,4.87
2022-09-07T08:14:49.914Z,5.67
2022-09-07T08:20:22.956Z,3.80
2022-09-07T08:25:54.034Z,5.43
2022-09-07T08:28:45.375Z,7.13
2022-09-07T08:34:23.408Z,5.87
2022-09-07T08:37:12.236Z,4.17
2022-09-07T08:45:39.223Z,5.57
2022-09-07T08:48:32.778Z,10.03
2022-09-07T08:51:24.554Z,8.47
2022-09-07T09:02:44.101Z,5.90
2022-09-07T09:08:25.104Z,3.47
2022-09-07T09:16:53.085Z,6.27
2022-09-07T09:22:34.052Z,6.70
2022-09-07T09:28:01.897Z,5.07
2022-09-07T09:30:50.719Z,6.37
2022-09-07T09:33:39.986Z,5.30
2022-09-07T09:42:20.314Z,8.27
2022-09-07T09:45:14.260Z,6.83
2022-09-07T09:56:45.108Z,7.43
2022-09-07T10:05:29.781Z,8.33
2022-09-07T10:11:07.702Z,7.43
2022-09-07T10:16:44.825Z,6.07
2022-09-07T10:19:37.634Z,10.53
2022-09-07T10:22:35.711Z,7.00
2022-09-07T10:28:22.114Z,5.07
2022-09-07T10:39:51.359Z,5.60
2022-09-07T10:45:31.232Z,6.90
2022-09-07T10:51:16.776Z,8.50
2022-09-07T11:05:38.510Z,4.47
2022-09-07T11:14:12.402Z,4.57
2022-09-07T11:19:36.184Z,6.03
2022-09-07T11:22:44.601Z,6.50
2022-09-07T11:25:36.506Z,7.47
2022-09-07T11:31:11.851Z,7.07
2022-09-07T11:36:51.922Z,4.57
2022-09-07T11:48:09.035Z,6.27
2022-09-07T11:53:50.215Z,6.10
2022-09-07T11:59:39.888Z,4.90
2022-09-07T12:06:36.878Z,7.00
2022-09-07T12:12:30.822Z,7.07
2022-09-07T12:15:26.736Z,5.93
2022-09-07T12:21:07.965Z,4.47
2022-09-07T12:23:58.756Z,8.57
2022-09-07T12:29:45.091Z,6.37
2022-09-07T12:35:46.552Z,6.43
2022-09-07T12:39:02.536Z,4.73
2022-09-07T12:44:35.087Z,6.00
2022-09-07T12:47:37.789Z,6.43
2022-09-07T12:56:32.136Z,5.43
2022-09-07T13:03:07.955Z,4.43
2022-09-07T13:09:10.957Z,7.43
2022-09-07T13:14:39.089Z,8.10
2022-09-07T13:20:39.648Z,6.13
2022-09-07T13:26:17.031Z,5.30
2022-09-07T13:29:06.808Z,4.20
2022-09-07T13:34:53.357Z,4.80
2022-09-07T13:37:52.450Z,4.90
2022-09-07T13:43:27.558Z,4.03
2022-09-07T13:49:12.380Z,4.47
2022-09-07T13:55:00.255Z,3.30
2022-09-07T14:00:38.940Z,6.63
2022-09-07T14:03:29.548Z,4.23
2022-09-07T14:06:34.428Z,7.67
2022-09-07T14:12:16.321Z,4.77
2022-09-07T14:17:52.515Z,5.67
2022-09-07T14:23:31.126Z,3.27
2022-09-07T14:29:06.494Z,2.27
2022-09-07T14:31:54.481Z,4.97
2022-09-07T14:37:30.978Z,3.57
2022-09-07T14:40:22.408Z,3.37
2022-09-07T14:43:30.514Z,2.50
2022-09-07T14:51:52.483Z,2.83
2022-09-07T14:54:42.644Z,4.03
2022-09-07T15:03:28.437Z,4.33
2022-09-07T15:09:30.593Z,4.70
2022-09-07T15:12:29.910Z,2.80
2022-09-07T15:18:29.497Z,2.70
2022-09-07T15:24:01.180Z,2.03
2022-09-07T15:27:05.942Z,3.80
2022-09-07T15:32:28.882Z,5.20
2022-09-07T15:35:18.881Z,7.17
2022-09-07T15:41:21.749Z,5.20
2022-09-07T15:43:48.585Z,2.93
2022-09-07T15:46:37.364Z,4.77
2022-09-07T15:52:10.042Z,3.47
2022-09-07T15:57:52.784Z,4.17
2022-09-07T16:06:14.625Z,4.50
2022-09-07T16:11:44.582Z,3.57
2022-09-07T16:20:06.912Z,4.03
2022-09-07T16:25:57.576Z,4.43
2022-09-07T16:31:34.680Z,4.53
2022-09-07T16:34:23.437Z,3.80
2022-09-07T16:39:59.086Z,2.73
2022-09-07T16:51:19.527Z,4.47
2022-09-07T16:56:53.715Z,5.77
2022-09-07T16:59:41.823Z,2.93
2022-09-07T17:05:19.166Z,4.53
2022-09-07T17:11:01.584Z,4.40
2022-09-07T17:16:32.186Z,3.83
2022-09-07T17:22:12.299Z,6.03
2022-09-07T17:25:00.481Z,6.10
2022-09-07T17:27:49.272Z,7.33
2022-09-07T17:33:16.946Z,4.77
2022-09-07T17:41:36.378Z,5.57
2022-09-07T17:47:15.172Z,7.87
2022-09-07T17:52:52.979Z,5.00
2022-09-07T17:58:17.753Z,4.97
2022-09-07T18:01:11.544Z,2.23
2022-09-07T18:06:41.609Z,3.40
2022-09-07T18:09:31.504Z,3.17
2022-09-07T18:15:10.965Z,2.07
2022-09-07T18:17:59.567Z,2.83
2022-09-07T18:20:48.090Z,2.50
2022-09-07T18:26:23.599Z,3.63
2022-09-07T18:32:02.334Z,2.40
2022-09-07T18:34:51.631Z,4.43
2022-09-07T18:40:24.933Z,3.53
2022-09-07T18:43:13.133Z,0.63
2022-09-07T18:48:56.008Z,1.20
2022-09-07T18:54:26.151Z,1.80
2022-09-07T19:00:05.032Z,7.67
2022-09-07T19:05:52.544Z,4.27
2022-09-07T19:11:25.087Z,4.73
2022-09-07T19:19:37.587Z,3.27
2022-09-07T19:25:14.833Z,5.17
2022-09-07T19:30:43.199Z,1.27
2022-09-07T19:36:17.404Z,1.63
2022-09-07T19:41:51.349Z,2.97
2022-09-07T19:44:40.411Z,1.70
2022-09-07T19:47:28.297Z,2.67
2022-09-07T19:52:58.714Z,3.10
2022-09-07T19:55:47.285Z,1.50
2022-09-07T19:58:36.612Z,3.73
2022-09-07T20:01:25.981Z,2.30
2022-09-07T20:07:06.523Z,1.57
2022-09-07T20:12:44.511Z,1.73
2022-09-07T20:18:14.663Z,2.47
2022-09-07T20:21:06.320Z,3.00
2022-09-07T20:26:45.208Z,1.80
2022-09-07T20:32:27.612Z,4.23
2022-09-07T20:37:57.176Z,3.47
2022-09-07T20:43:33.203Z,2.53
2022-09-07T20:49:09.652Z,2.70
2022-09-07T20:54:38.726Z,3.53
2022-09-07T21:00:09.140Z,2.30
2022-09-07T21:02:58.305Z,4.13
2022-09-07T21:05:46.855Z,2.20
2022-09-07T21:11:30.185Z,2.33
2022-09-07T21:17:10.207Z,2.77
2022-09-07T21:19:59.784Z,2.73
2022-09-07T21:25:32.705Z,1.40
2022-09-07T21:31:09.050Z,2.87
2022-09-07T21:39:30.947Z,3.83
2022-09-07T21:45:07.681Z,4.33
2022-09-07T21:47:56.313Z,4.63
2022-09-07T21:53:32.074Z,2.83
2022-09-07T21:59:07.319Z,3.50
2022-09-07T22:01:55.594Z,2.73
2022-09-07T22:07:31.937Z,2.53
2022-09-07T22:13:10.621Z,2.83
2022-09-07T22:15:59.075Z,4.47
2022-09-07T22:18:52.479Z,7.80
2022-09-07T22:21:41.077Z,4.20
2022-09-07T22:24:32.577Z,4.90
2022-09-07T22:27:22.122Z,3.33
2022-09-07T22:32:52.604Z,2.60
2022-09-07T22:38:25.871Z,2.57
2022-09-07T22:41:16.440Z,2.03
2022-09-07T22:44:05.195Z,5.67
2022-09-07T22:46:53.850Z,3.50
2022-09-07T22:49:42.351Z,3.37
2022-09-07T22:55:15.184Z,3.60
2022-09-07T22:58:03.490Z,2.40
2022-09-07T23:00:52.763Z,4.43
2022-09-07T23:06:33.260Z,1.80
2022-09-07T23:12:09.849Z,3.37
2022-09-07T23:17:45.423Z,2.40
2022-09-07T23:23:22.874Z,3.40
2022-09-07T23:28:58.702Z,2.07
2022-09-07T23:31:47.955Z,2.70
2022-09-07T23:37:20.826Z,1.53
2022-09-07T23:40:11.082Z,2.47
2022-09-07T23:45:40.906Z,2.93
2022-09-07T23:51:14.672Z,2.23
2022-09-07T23:56:49.336Z,2.00
